This is the latest recevied weather packets stored in our database for station/object G7GFU-13. If no packets are shown the sender has not sent any weather packets the latest 10 day(s).
| Time | Temp. | Humidity | Pressure | Rain* | Wind** | Luminosity | Snow |
|---|---|---|---|---|---|---|---|
| 1777472283 | 17.78° C | 35% | 1026.5 hPa | 0 mm | - | - | - |
| 1777470303 | 17.78° C | 35% | 1026.5 hPa | 0 mm | - | - | - |
| 1777468277 | 17.78° C | 37% | 1026.6 hPa | 0 mm | - | - | - |
| 1777466297 | 17.78° C | 38% | 1026.9 hPa | 0 mm | - | - | - |
| 1777464138 | 17.78° C | 40% | 1027.2 hPa | 0 mm | - | - | - |
| 1777463237 | 17.22° C | 40% | 1027.3 hPa | 0 mm | - | - | - |
| 1777460943 | 16.67° C | 41% | 1027.6 hPa | 0 mm | - | - | - |
| 1777460403 | 17.22° C | 40% | 1027.6 hPa | 0 mm | - | - | - |
| 1777458016 | 16.67° C | 45% | 1027.9 hPa | 0 mm | - | - | - |
| 1777456803 | 15.56° C | 48% | 1027.9 hPa | 0 mm | - | - | - |
| 1777455903 | 15° C | 50% | 1028.1 hPa | 0 mm | - | - | - |
| 1777452303 | 12.78° C | 59% | 1028.5 hPa | 0 mm | - | - | - |
| 1777451763 | 12.78° C | 59% | 1028.5 hPa | 0 mm | - | - | - |
| 1777445103 | 9.44° C | 68% | 1028.7 hPa | 0 mm | - | - | - |
| 1777438803 | 6.11° C | 76% | 1028.5 hPa | 0 mm | - | - | - |
| 1777436823 | 6.11° C | 76% | 1028.7 hPa | 0 mm | - | - | - |
| 1777429083 | 6.11° C | 77% | 1029.1 hPa | 0 mm | - | - | - |
| 1777427103 | 5.56° C | 77% | 1029.4 hPa | 0 mm | - | - | - |
| 1777421883 | 6.67° C | 74% | 1029.6 hPa | 0 mm | - | - | - |
| 1777420803 | 7.22° C | 74% | 1029.5 hPa | 0 mm | - | - | - |
| 1777419498 | 7.22° C | 75% | 1029.6 hPa | 0 mm | - | - | - |
| 1777415763 | 8.33° C | 74% | 1029.7 hPa | 0 mm | - | - | - |
| 1777413737 | 8.89° C | 72% | 1029.4 hPa | 0 mm | - | - | - |
| 1777411758 | 8.89° C | 69% | 1029.3 hPa | 0 mm | - | - | - |
| 1777406943 | 10.56° C | 67% | 1028.7 hPa | 0 mm | - | - | - |
* Rain latest hour (hover to see other rain measurements)
** Current wind speed in m/s (hover to see current wind gust speed)